Milam, Texas
Current Conditions -  °F | °C
As of 6:56 AM on Monday 20 Oct 2014 (Local Time) from KAQV Reporting Station
Clear Clear  
Wind Chill: 49°   Ceiling: Unl
Heat Index: 49°   Visibility: 9mi
Dew Point: 47°   Wind: 0mph
Humidity: 93%   Direction: NA
Pressure: 30.06"   Gusts: NA
Location:  31.43°N, 93.85°W
Report Text: KAQV 201156Z AUTO 00000KT 9SM CLR 09/08 A3006 RMK AO2 SLP178 T00940083 10122 20094 53006
Loading
Personal Weather Stations






























Interactive Weather Map
Tropical Storm Tracking
New forecast layout! Learn more

10-Day Weather Forecast

Advertisements
Track Severe Weather on mobile